createdAt,value
2022-08-08T00:00:55.239Z,1.07
2022-08-08T00:03:20.088Z,1.30
2022-08-08T00:06:02.862Z,1.20
2022-08-08T00:08:43.455Z,1.30
2022-08-08T00:11:47.033Z,1.40
2022-08-08T00:14:48.006Z,1.20
2022-08-08T00:17:27.351Z,1.37
2022-08-08T00:20:16.308Z,1.43
2022-08-08T00:22:50.117Z,1.40
2022-08-08T00:25:20.001Z,1.27
2022-08-08T00:27:54.058Z,1.20
2022-08-08T00:30:23.848Z,1.30
2022-08-08T00:32:56.056Z,1.30
2022-08-08T00:35:34.389Z,1.30
2022-08-08T00:38:07.515Z,1.37
2022-08-08T00:41:09.556Z,1.40
2022-08-08T00:44:01.044Z,1.37
2022-08-08T00:46:57.783Z,1.20
2022-08-08T00:49:37.473Z,1.30
2022-08-08T00:52:19.831Z,1.30
2022-08-08T00:54:59.428Z,1.37
2022-08-08T00:57:42.823Z,1.17
2022-08-08T01:00:23.747Z,1.20
2022-08-08T01:03:57.933Z,1.20
2022-08-08T01:06:07.973Z,1.27
2022-08-08T01:09:00.880Z,1.30
2022-08-08T01:12:10.436Z,1.13
2022-08-08T01:14:54.158Z,1.40
2022-08-08T01:17:54.171Z,1.27
2022-08-08T01:20:38.309Z,1.23
2022-08-08T01:24:02.647Z,1.27
2022-08-08T01:26:18.725Z,1.30
2022-08-08T01:29:17.805Z,1.37
2022-08-08T01:32:15.889Z,1.20
2022-08-08T01:35:11.245Z,1.27
2022-08-08T01:37:57.376Z,1.30
2022-08-08T01:40:48.874Z,1.30
2022-08-08T01:43:34.666Z,1.27
2022-08-08T01:46:07.435Z,1.47
2022-08-08T01:48:39.464Z,1.10
2022-08-08T01:51:32.136Z,1.40
2022-08-08T01:55:25.863Z,1.60
2022-08-08T01:57:25.542Z,1.43
2022-08-08T02:00:14.989Z,0.90
2022-08-08T02:02:50.380Z,1.57
2022-08-08T02:05:56.801Z,1.40
2022-08-08T02:08:33.794Z,1.40
2022-08-08T02:11:04.163Z,1.10
2022-08-08T02:13:54.645Z,1.30
2022-08-08T02:16:33.667Z,1.23
2022-08-08T02:19:26.910Z,1.30
2022-08-08T02:22:28.439Z,1.10
2022-08-08T02:25:15.240Z,1.20
2022-08-08T02:27:47.869Z,1.17
2022-08-08T02:30:25.506Z,1.23
2022-08-08T02:32:55.437Z,1.30
2022-08-08T02:36:02.675Z,1.27
2022-08-08T02:38:39.605Z,1.20
2022-08-08T02:42:04.058Z,1.40
2022-08-08T02:44:56.941Z,1.27
2022-08-08T02:47:54.897Z,1.23
2022-08-08T02:50:55.534Z,1.30
2022-08-08T02:54:05.202Z,1.60
2022-08-08T02:56:55.694Z,1.30
2022-08-08T02:59:57.889Z,1.40
2022-08-08T03:02:41.240Z,1.20
2022-08-08T03:05:27.614Z,1.40
2022-08-08T03:08:22.424Z,1.20
2022-08-08T03:11:13.739Z,1.30
2022-08-08T03:15:57.397Z,1.47
2022-08-08T03:17:02.832Z,1.10
2022-08-08T03:19:50.763Z,1.30
2022-08-08T03:22:38.942Z,1.17
2022-08-08T03:25:14.677Z,1.67
2022-08-08T03:27:47.062Z,1.40
2022-08-08T03:30:19.047Z,1.30
2022-08-08T03:33:07.952Z,1.73
2022-08-08T03:35:58.833Z,1.37
2022-08-08T03:38:57.411Z,1.60
2022-08-08T03:41:32.139Z,1.30
2022-08-08T03:44:00.456Z,1.70
2022-08-08T03:46:32.403Z,1.33
2022-08-08T03:49:56.428Z,1.47
2022-08-08T03:51:52.510Z,1.43
2022-08-08T03:54:41.093Z,1.50
2022-08-08T03:58:33.405Z,1.30
2022-08-08T04:00:08.038Z,1.50
2022-08-08T04:02:47.597Z,1.20
2022-08-08T04:05:28.024Z,1.40
2022-08-08T04:07:58.195Z,1.33
2022-08-08T04:10:32.128Z,1.43
2022-08-08T04:13:03.727Z,1.50
2022-08-08T04:15:55.116Z,1.40
2022-08-08T04:18:42.034Z,1.33
2022-08-08T04:21:23.020Z,1.57
2022-08-08T04:24:05.481Z,1.50
2022-08-08T04:26:57.310Z,1.50
2022-08-08T04:29:27.335Z,1.57
2022-08-08T04:31:58.700Z,1.37
2022-08-08T04:34:31.975Z,1.30
2022-08-08T04:37:10.747Z,1.40
2022-08-08T04:40:05.372Z,1.40
2022-08-08T04:42:27.065Z,1.40
2022-08-08T04:44:58.008Z,1.50
2022-08-08T04:47:26.441Z,1.40
2022-08-08T04:49:58.931Z,1.53
2022-08-08T04:52:33.748Z,1.90
2022-08-08T04:55:06.451Z,1.80
2022-08-08T04:57:34.201Z,1.37
2022-08-08T05:00:02.571Z,1.23
2022-08-08T05:02:30.754Z,1.40
2022-08-08T05:04:59.592Z,1.40
2022-08-08T05:07:38.209Z,1.57
2022-08-08T05:10:12.771Z,1.40
2022-08-08T05:12:43.083Z,1.63
2022-08-08T05:16:48.514Z,1.50
2022-08-08T05:18:14.211Z,1.23
2022-08-08T05:20:48.529Z,1.53
2022-08-08T05:23:19.670Z,1.10
2022-08-08T05:25:49.575Z,1.60
2022-08-08T05:28:56.765Z,1.40
2022-08-08T05:31:19.440Z,1.40
2022-08-08T05:33:51.987Z,1.50
2022-08-08T05:36:25.067Z,1.13
2022-08-08T05:38:53.695Z,1.63
2022-08-08T05:41:23.397Z,1.40
2022-08-08T05:44:03.998Z,1.20
2022-08-08T05:46:32.858Z,1.47
2022-08-08T05:49:06.390Z,1.40
2022-08-08T05:51:49.274Z,1.30
2022-08-08T05:54:28.104Z,1.50
2022-08-08T05:57:11.189Z,1.30
2022-08-08T06:00:00.048Z,1.27
2022-08-08T06:03:02.146Z,1.30
2022-08-08T06:05:35.621Z,1.50
2022-08-08T06:08:09.505Z,1.30
2022-08-08T06:10:40.725Z,1.50
2022-08-08T06:13:09.380Z,1.57
2022-08-08T06:15:51.117Z,1.40
2022-08-08T06:18:28.084Z,1.50
2022-08-08T06:20:59.316Z,1.30
2022-08-08T06:23:49.019Z,1.20
2022-08-08T06:26:43.327Z,1.57
2022-08-08T06:29:25.967Z,1.20
2022-08-08T06:32:10.598Z,1.10
2022-08-08T06:34:52.323Z,1.00
2022-08-08T06:37:26.911Z,1.27
2022-08-08T06:40:02.491Z,1.40
2022-08-08T06:42:33.750Z,1.40
2022-08-08T06:45:05.540Z,1.17
2022-08-08T06:47:58.358Z,1.43
2022-08-08T06:50:31.489Z,1.20
2022-08-08T06:53:13.811Z,1.40
2022-08-08T06:56:00.449Z,1.20
2022-08-08T06:58:33.565Z,1.20
2022-08-08T07:01:14.352Z,1.37
2022-08-08T07:04:40.475Z,1.30
2022-08-08T07:06:50.550Z,1.30
2022-08-08T07:09:20.890Z,1.17
2022-08-08T07:11:52.058Z,1.20
2022-08-08T07:14:40.433Z,1.30
2022-08-08T07:17:18.984Z,1.50
2022-08-08T07:19:47.369Z,1.37
2022-08-08T07:22:19.073Z,1.47
2022-08-08T07:24:49.771Z,1.53
2022-08-08T07:27:22.565Z,1.10
2022-08-08T07:30:08.217Z,1.37
2022-08-08T07:32:41.479Z,1.30
2022-08-08T07:35:11.192Z,1.63
2022-08-08T07:37:56.428Z,1.20
2022-08-08T07:40:41.367Z,1.23
2022-08-08T07:43:12.277Z,1.47
2022-08-08T07:46:05.541Z,1.00
2022-08-08T07:48:34.734Z,1.00
2022-08-08T07:51:04.502Z,0.93
2022-08-08T07:54:01.812Z,1.10
2022-08-08T07:56:36.826Z,1.10
2022-08-08T07:59:10.662Z,1.07
2022-08-08T08:02:37.362Z,1.10
2022-08-08T08:04:30.269Z,1.20
2022-08-08T08:07:00.169Z,1.20
2022-08-08T08:09:33.124Z,1.23
2022-08-08T08:12:03.664Z,1.00
2022-08-08T08:14:41.495Z,1.17
2022-08-08T08:17:09.676Z,1.30
2022-08-08T08:19:45.109Z,1.20
2022-08-08T08:22:14.958Z,1.20
2022-08-08T08:24:46.554Z,1.03
2022-08-08T08:27:17.594Z,1.00
2022-08-08T08:29:51.932Z,1.07
2022-08-08T08:32:31.481Z,0.90
2022-08-08T08:35:05.245Z,0.90
2022-08-08T08:37:53.022Z,0.90
2022-08-08T08:40:23.837Z,1.20
2022-08-08T08:42:53.452Z,0.83
2022-08-08T08:45:23.493Z,1.20
2022-08-08T08:47:58.189Z,0.90
2022-08-08T08:50:33.108Z,1.20
2022-08-08T08:53:27.309Z,1.10
2022-08-08T08:56:01.993Z,1.00
2022-08-08T08:58:37.702Z,1.10
2022-08-08T09:01:09.622Z,0.97
2022-08-08T09:03:50.779Z,0.83
2022-08-08T09:06:33.761Z,0.93
2022-08-08T09:09:05.265Z,1.13
2022-08-08T09:11:47.567Z,1.00
2022-08-08T09:14:25.850Z,1.10
2022-08-08T09:16:56.375Z,1.00
2022-08-08T09:21:59.247Z,1.10
2022-08-08T09:22:13.255Z,1.03
2022-08-08T09:24:54.411Z,1.23
2022-08-08T09:27:55.725Z,1.20
2022-08-08T09:30:14.675Z,1.00
2022-08-08T09:33:54.196Z,1.20
2022-08-08T09:35:50.187Z,0.83
2022-08-08T09:38:53.281Z,0.90
2022-08-08T09:41:27.706Z,1.00
2022-08-08T09:44:15.129Z,0.93
2022-08-08T09:46:57.683Z,1.13
2022-08-08T09:49:42.983Z,1.17
2022-08-08T09:52:56.299Z,1.00
2022-08-08T09:55:10.286Z,1.20
2022-08-08T09:57:46.671Z,1.07
2022-08-08T10:00:49.750Z,1.13
2022-08-08T10:03:14.145Z,1.00
2022-08-08T10:05:42.066Z,1.10
2022-08-08T10:08:13.816Z,1.10
2022-08-08T10:10:50.001Z,0.90
2022-08-08T10:13:32.661Z,1.30
2022-08-08T10:16:03.999Z,1.00
2022-08-08T10:18:33.685Z,1.00
2022-08-08T10:21:24.951Z,1.10
2022-08-08T10:23:58.545Z,1.20
2022-08-08T10:26:30.529Z,1.20
2022-08-08T10:29:01.268Z,1.30
2022-08-08T10:31:48.337Z,1.00
2022-08-08T10:34:18.528Z,1.03
2022-08-08T10:36:47.038Z,0.90
2022-08-08T10:39:23.299Z,1.10
2022-08-08T10:42:15.349Z,1.13
2022-08-08T10:44:43.845Z,1.30
2022-08-08T10:47:14.090Z,1.00
2022-08-08T10:50:02.072Z,0.85
2022-08-08T10:52:41.962Z,1.00
2022-08-08T10:55:11.963Z,1.30
2022-08-08T10:57:49.600Z,1.10
2022-08-08T11:00:26.135Z,1.15
2022-08-08T11:02:57.067Z,1.20
2022-08-08T11:05:27.422Z,1.10
2022-08-08T11:08:36.927Z,1.00
2022-08-08T11:11:02.365Z,0.85
2022-08-08T11:13:39.311Z,1.15
2022-08-08T11:16:32.249Z,0.85
2022-08-08T11:19:01.092Z,0.85
2022-08-08T11:21:35.321Z,0.88
2022-08-08T11:24:05.641Z,1.00
2022-08-08T11:26:34.773Z,0.90
2022-08-08T11:29:05.977Z,0.93
2022-08-08T11:31:46.851Z,0.85
2022-08-08T11:34:31.709Z,0.88
2022-08-08T11:37:04.468Z,0.95
2022-08-08T11:39:42.647Z,0.93
2022-08-08T11:42:26.923Z,0.80
2022-08-08T11:44:55.160Z,1.10
2022-08-08T11:47:23.332Z,1.30
2022-08-08T11:50:11.664Z,0.95
2022-08-08T11:52:45.228Z,0.80
2022-08-08T11:55:15.543Z,0.90
2022-08-08T11:57:42.564Z,1.10
2022-08-08T12:00:14.320Z,0.98
2022-08-08T12:03:00.912Z,0.90
2022-08-08T12:05:31.423Z,0.88
2022-08-08T12:08:00.860Z,0.90
2022-08-08T12:10:30.311Z,1.00
2022-08-08T12:13:07.700Z,0.90
2022-08-08T12:15:48.346Z,0.90
2022-08-08T12:18:18.174Z,0.95
2022-08-08T12:20:49.649Z,1.10
2022-08-08T12:23:42.982Z,1.00
2022-08-08T12:26:27.720Z,0.98
2022-08-08T12:29:19.668Z,1.30
2022-08-08T12:31:53.899Z,1.17
2022-08-08T12:34:40.173Z,1.13
2022-08-08T12:37:08.912Z,1.15
2022-08-08T12:40:00.809Z,1.00
2022-08-08T12:42:26.591Z,1.20
2022-08-08T12:45:04.786Z,1.10
2022-08-08T12:48:10.289Z,1.00
2022-08-08T12:50:48.051Z,0.90
2022-08-08T12:53:24.736Z,1.00
2022-08-08T12:56:06.561Z,1.13
2022-08-08T12:58:44.920Z,1.00
2022-08-08T13:01:12.374Z,0.93
2022-08-08T13:03:51.944Z,1.45
2022-08-08T13:06:20.225Z,1.23
2022-08-08T13:08:53.618Z,1.30
2022-08-08T13:12:27.233Z,1.10
2022-08-08T13:14:20.133Z,1.13
2022-08-08T13:16:49.349Z,1.38
2022-08-08T13:19:20.138Z,1.23
2022-08-08T13:21:53.769Z,1.02
2022-08-08T13:24:42.384Z,0.90
2022-08-08T13:27:18.997Z,1.00
2022-08-08T13:29:51.076Z,1.13
2022-08-08T13:32:20.949Z,1.25
2022-08-08T13:34:52.482Z,1.08
2022-08-08T13:37:27.964Z,1.00
2022-08-08T13:40:06.909Z,1.00
2022-08-08T13:42:34.744Z,1.10
2022-08-08T13:45:02.282Z,1.00
2022-08-08T13:47:31.515Z,1.00
2022-08-08T13:50:35.280Z,1.10
2022-08-08T13:52:55.621Z,0.87
2022-08-08T13:55:29.321Z,1.07
2022-08-08T13:58:07.858Z,1.27
2022-08-08T14:00:39.516Z,1.50
2022-08-08T14:03:52.938Z,1.37
2022-08-08T14:06:08.797Z,1.10
2022-08-08T14:08:57.149Z,0.83
2022-08-08T14:11:27.988Z,1.07
2022-08-08T14:13:59.912Z,1.20
2022-08-08T14:16:28.624Z,1.10
2022-08-08T14:18:56.349Z,1.07
2022-08-08T14:21:52.348Z,1.40
2022-08-08T14:24:33.775Z,1.00
2022-08-08T14:27:01.788Z,1.00
2022-08-08T14:29:39.506Z,1.13
2022-08-08T14:32:14.173Z,1.30
2022-08-08T14:34:49.910Z,1.13
2022-08-08T14:37:17.999Z,1.20
2022-08-08T14:40:05.627Z,0.90
2022-08-08T14:42:54.599Z,0.90
2022-08-08T14:45:33.767Z,1.30
2022-08-08T14:48:16.241Z,1.10
2022-08-08T14:50:45.314Z,1.10
2022-08-08T14:53:13.632Z,1.10
2022-08-08T14:55:42.968Z,1.30
2022-08-08T14:58:12.069Z,1.10
2022-08-08T15:00:43.534Z,0.90
2022-08-08T15:03:14.824Z,0.90
2022-08-08T15:05:54.185Z,1.20
2022-08-08T15:08:34.747Z,0.83
2022-08-08T15:11:06.518Z,1.03
2022-08-08T15:13:34.911Z,1.10
2022-08-08T15:16:12.121Z,1.10
2022-08-08T15:18:44.271Z,1.20
2022-08-08T15:21:17.253Z,1.10
2022-08-08T15:23:44.051Z,1.10
2022-08-08T15:26:20.617Z,1.30
2022-08-08T15:28:52.972Z,1.10
2022-08-08T15:31:56.327Z,1.10
2022-08-08T15:34:18.527Z,1.20
2022-08-08T15:36:56.640Z,0.90
2022-08-08T15:39:23.618Z,1.00
2022-08-08T15:41:53.968Z,1.03
2022-08-08T15:44:20.983Z,1.40
2022-08-08T15:46:50.616Z,1.10
2022-08-08T15:49:20.798Z,1.10
2022-08-08T15:51:58.738Z,1.10
2022-08-08T15:54:38.807Z,1.27
2022-08-08T15:57:09.418Z,1.20
2022-08-08T16:00:25.431Z,1.20
2022-08-08T16:02:30.400Z,1.00
2022-08-08T16:04:59.112Z,1.20
2022-08-08T16:07:39.529Z,1.40
2022-08-08T16:13:04.200Z,1.20
2022-08-08T16:13:34.984Z,1.50
2022-08-08T16:15:57.192Z,1.50
2022-08-08T16:18:32.265Z,0.90
2022-08-08T16:21:00.837Z,1.20
2022-08-08T16:23:31.893Z,1.10
2022-08-08T16:26:04.364Z,1.10
2022-08-08T16:28:36.573Z,1.10
2022-08-08T16:31:06.346Z,1.13
2022-08-08T16:33:38.981Z,1.30
2022-08-08T16:36:08.820Z,1.13
2022-08-08T16:38:44.746Z,1.10
2022-08-08T16:41:20.396Z,1.33
2022-08-08T16:43:51.713Z,1.00
2022-08-08T16:46:37.935Z,1.00
2022-08-08T16:49:08.043Z,1.13
2022-08-08T16:55:01.539Z,0.90
2022-08-08T16:55:04.911Z,1.10
2022-08-08T16:57:27.727Z,1.20
2022-08-08T17:00:06.139Z,1.30
2022-08-08T17:02:38.501Z,1.40
2022-08-08T17:05:07.762Z,1.10
2022-08-08T17:07:37.497Z,0.90
2022-08-08T17:10:08.531Z,1.20
2022-08-08T17:12:37.298Z,1.20
2022-08-08T17:15:17.702Z,1.20
2022-08-08T17:18:02.873Z,1.27
2022-08-08T17:20:31.877Z,1.17
2022-08-08T17:23:18.043Z,1.37
2022-08-08T17:25:52.587Z,1.13
2022-08-08T17:28:30.749Z,0.90
2022-08-08T17:31:43.361Z,1.20
2022-08-08T17:34:37.499Z,1.20
2022-08-08T17:37:00.917Z,1.10
2022-08-08T17:40:03.211Z,1.20
2022-08-08T17:42:14.003Z,1.03
2022-08-08T17:44:44.035Z,0.87
2022-08-08T17:47:23.384Z,0.90
2022-08-08T17:49:52.531Z,1.17
2022-08-08T17:52:23.114Z,0.90
2022-08-08T17:54:56.056Z,1.10
2022-08-08T17:57:23.994Z,1.03
2022-08-08T17:59:51.873Z,1.23
2022-08-08T18:02:28.794Z,0.90
2022-08-08T18:04:58.389Z,1.50
2022-08-08T18:08:04.291Z,1.20
2022-08-08T18:10:15.213Z,1.00
2022-08-08T18:12:42.880Z,1.07
2022-08-08T18:15:13.355Z,1.00
2022-08-08T18:18:27.469Z,1.30
2022-08-08T18:20:42.823Z,1.33
2022-08-08T18:23:14.620Z,1.30
2022-08-08T18:25:44.994Z,1.30
2022-08-08T18:28:13.704Z,1.50
2022-08-08T18:30:42.618Z,1.20
2022-08-08T18:33:36.644Z,1.43
2022-08-08T18:36:02.943Z,1.57
2022-08-08T18:38:32.294Z,1.70
2022-08-08T18:41:01.174Z,1.60
2022-08-08T18:43:42.712Z,1.77
2022-08-08T18:46:55.193Z,1.70
2022-08-08T18:48:58.175Z,1.50
2022-08-08T18:51:52.822Z,1.63
2022-08-08T18:54:21.912Z,1.70
2022-08-08T18:56:50.231Z,1.40
2022-08-08T18:59:17.969Z,2.00
2022-08-08T19:02:26.168Z,1.60
2022-08-08T19:04:32.295Z,1.60
2022-08-08T19:07:03.182Z,1.60
2022-08-08T19:09:49.124Z,1.83
2022-08-08T19:12:29.260Z,1.57
2022-08-08T19:14:56.086Z,1.43
2022-08-08T19:17:29.352Z,1.40
2022-08-08T19:20:10.204Z,1.63
2022-08-08T19:22:38.122Z,1.30
2022-08-08T19:25:29.133Z,1.47
2022-08-08T19:27:57.137Z,1.83
2022-08-08T19:30:27.418Z,1.97
2022-08-08T19:33:00.751Z,1.80
2022-08-08T19:35:45.380Z,1.67
2022-08-08T19:38:17.438Z,1.60
2022-08-08T19:40:54.456Z,1.47
2022-08-08T19:43:28.203Z,1.90
2022-08-08T19:45:58.160Z,2.00
2022-08-08T19:48:29.043Z,1.67
2022-08-08T19:51:01.361Z,2.00
2022-08-08T19:53:52.158Z,1.90
2022-08-08T19:56:16.308Z,1.90
2022-08-08T19:58:51.847Z,1.80
2022-08-08T20:01:24.061Z,1.80
2022-08-08T20:04:02.270Z,1.70
2022-08-08T20:06:29.996Z,1.80
2022-08-08T20:08:57.197Z,1.63
2022-08-08T20:11:24.409Z,1.60
2022-08-08T20:14:12.684Z,1.70
2022-08-08T20:16:40.491Z,2.03
2022-08-08T20:19:08.836Z,1.53
2022-08-08T20:21:37.864Z,1.70
2022-08-08T20:24:07.930Z,1.77
2022-08-08T20:26:35.816Z,1.50
2022-08-08T20:29:06.979Z,1.50
2022-08-08T20:32:02.580Z,1.60
2022-08-08T20:34:29.111Z,1.67
2022-08-08T20:37:02.445Z,1.80
2022-08-08T20:39:38.957Z,1.50
2022-08-08T20:42:28.745Z,1.60
2022-08-08T20:44:56.905Z,1.50
2022-08-08T20:47:25.419Z,1.70
2022-08-08T20:49:54.257Z,1.80
2022-08-08T20:52:23.954Z,1.50
2022-08-08T20:54:50.744Z,1.67
2022-08-08T20:57:18.885Z,1.93
2022-08-08T20:59:46.776Z,1.30
2022-08-08T21:02:14.652Z,1.67
2022-08-08T21:05:00.233Z,1.63
2022-08-08T21:07:46.885Z,1.53
2022-08-08T21:10:15.625Z,1.50
2022-08-08T21:12:44.724Z,1.50
2022-08-08T21:15:16.421Z,1.73
2022-08-08T21:18:00.790Z,1.80
2022-08-08T21:20:34.020Z,2.00
2022-08-08T21:23:02.525Z,1.67
2022-08-08T21:25:36.097Z,2.10
2022-08-08T21:28:15.219Z,1.90
2022-08-08T21:30:49.878Z,2.07
2022-08-08T21:33:20.643Z,2.13
2022-08-08T21:36:17.525Z,2.00
2022-08-08T21:38:34.960Z,2.10
2022-08-08T21:41:01.736Z,2.07
2022-08-08T21:43:33.803Z,1.93
2022-08-08T21:48:04.713Z,2.17
2022-08-08T21:48:51.057Z,2.13
2022-08-08T21:52:09.781Z,2.20
2022-08-08T21:54:33.262Z,2.60
2022-08-08T21:56:53.960Z,2.70
2022-08-08T21:59:21.146Z,2.57
2022-08-08T22:01:52.407Z,2.50
2022-08-08T22:04:24.757Z,2.47
2022-08-08T22:06:52.385Z,2.80
2022-08-08T22:09:19.579Z,2.50
2022-08-08T22:12:02.553Z,2.77
2022-08-08T22:14:33.972Z,2.37
2022-08-08T22:17:01.481Z,2.63
2022-08-08T22:19:29.778Z,2.60
2022-08-08T22:21:56.774Z,2.77
2022-08-08T22:24:23.901Z,2.50
2022-08-08T22:27:01.784Z,2.90
2022-08-08T22:30:01.564Z,2.73
2022-08-08T22:32:18.946Z,2.60
2022-08-08T22:34:51.307Z,3.00
2022-08-08T22:37:48.596Z,2.70
2022-08-08T22:40:11.852Z,2.90
2022-08-08T22:42:47.178Z,2.53
2022-08-08T22:45:14.627Z,2.30
2022-08-08T22:47:46.891Z,2.40
2022-08-08T22:50:27.515Z,2.70
2022-08-08T22:54:31.898Z,2.83
2022-08-08T22:55:59.476Z,2.67
2022-08-08T22:58:30.867Z,2.77
2022-08-08T23:01:00.194Z,2.83
2022-08-08T23:03:34.337Z,2.60
2022-08-08T23:06:15.908Z,2.20
2022-08-08T23:08:44.512Z,2.40
2022-08-08T23:11:23.588Z,2.40
2022-08-08T23:14:11.551Z,2.70
2022-08-08T23:16:43.872Z,2.40
2022-08-08T23:19:11.488Z,2.53
2022-08-08T23:21:38.986Z,2.83
2022-08-08T23:24:06.433Z,2.23
2022-08-08T23:26:33.952Z,2.73
2022-08-08T23:29:01.667Z,2.47
2022-08-08T23:31:28.491Z,2.37
2022-08-08T23:34:17.904Z,2.20
2022-08-08T23:36:42.361Z,2.27
2022-08-08T23:39:09.564Z,2.37
2022-08-08T23:41:41.605Z,2.53
2022-08-08T23:44:14.380Z,2.30
2022-08-08T23:48:59.773Z,2.13
2022-08-08T23:49:28.381Z,2.37
2022-08-08T23:52:05.504Z,2.00
2022-08-08T23:54:42.157Z,1.70
2022-08-08T23:57:26.849Z,2.10
